Natural Steps, Arkansas
Current Conditions -  °F | °C
As of 10:53 PM on Saturday 20 Dec 2014 (Local Time) from KLIT Reporting Station
Broken Clouds Broken Clouds  
Wind Chill: 39°   Ceiling: 4900
Heat Index: 39°   Visibility: 7mi
Dew Point: 34°   Wind: 0mph
Humidity: 82%   Direction: NA
Pressure: 30.25"   Gusts: NA
Location:  34.8869°N, 92.5324°W
Report Text: KLIT 210453Z 00000KT 7SM BKN049 04/01 A3025 RMK AO2 RAB26E30SNB12E26 SLP249 P0000 T00390011
Loading
Personal Weather Stations






























Interactive Weather Map New forecast layout! Learn more

10-Day Weather Forecast

Advertisements
Track Severe Weather on mobile